JED weather

King Abdulaziz International Airport
Jeddah, Makkah Region, Saudi Arabia

Public forecast

Using degrees Celsius for public forecast. Weather courtesy of forecast.io.

METAR (pilot weather report)

Retrieved 2019/05/22 16:00 UTC (12 minutes ago):

OEJN 221600Z 30008KT 9999 FEW030 33/18 Q1010 NOSIG

TAF (pilot weather forecast)

Retrieved 2019/05/22 12:06 UTC (4 hours ago):

TAF OEJN 221100Z 2212/2318 32015KT 7000 FEW040 TEMPO 2214/2218 4000 BLDU TS FEW035CB